createdAt,value
2019-02-27T00:00:54.303Z,7.10
2019-02-27T00:03:23.060Z,7.10
2019-02-27T00:05:51.585Z,7.10
2019-02-27T00:08:20.137Z,7.00
2019-02-27T00:10:48.695Z,7.00
2019-02-27T00:13:17.189Z,7.00
2019-02-27T00:15:48.245Z,7.00
2019-02-27T00:18:16.772Z,6.90
2019-02-27T00:20:45.878Z,6.90
2019-02-27T00:23:14.433Z,6.90
2019-02-27T00:25:42.894Z,6.90
2019-02-27T00:28:13.503Z,6.80
2019-02-27T00:30:42.179Z,6.80
2019-02-27T00:33:10.769Z,6.80
2019-02-27T00:35:39.680Z,6.70
2019-02-27T00:38:08.254Z,6.70
2019-02-27T00:40:39.401Z,6.70
2019-02-27T00:43:07.990Z,6.70
2019-02-27T00:45:39.689Z,6.70
2019-02-27T00:48:06.673Z,6.70
2019-02-27T00:50:38.896Z,6.60
2019-02-27T00:53:12.650Z,6.60
2019-02-27T00:55:41.129Z,6.50
2019-02-27T00:58:09.682Z,6.50
2019-02-27T01:00:39.285Z,6.40
2019-02-27T01:03:08.740Z,6.40
2019-02-27T01:05:40.980Z,6.30
2019-02-27T01:08:08.984Z,6.20
2019-02-27T01:10:38.330Z,6.20
2019-02-27T01:13:06.889Z,6.10
2019-02-27T01:15:35.346Z,6.10
2019-02-27T01:18:04.803Z,6.00
2019-02-27T01:20:38.211Z,5.90
2019-02-27T01:23:10.908Z,5.90
2019-02-27T01:25:38.573Z,5.90
2019-02-27T01:28:10.863Z,5.80
2019-02-27T01:30:37.341Z,5.70
2019-02-27T01:33:05.860Z,5.70
2019-02-27T01:35:34.321Z,5.70
2019-02-27T01:38:05.067Z,5.60
2019-02-27T01:40:33.045Z,5.60
2019-02-27T01:43:05.475Z,5.50
2019-02-27T01:45:31.699Z,5.50
2019-02-27T01:48:00.160Z,5.50
2019-02-27T01:50:36.601Z,5.50
2019-02-27T01:53:07.387Z,5.40
2019-02-27T01:55:37.089Z,5.40
2019-02-27T01:58:09.230Z,5.40
2019-02-27T02:00:36.160Z,5.30
2019-02-27T02:03:04.878Z,5.30
2019-02-27T02:05:33.462Z,5.30
2019-02-27T02:08:02.200Z,5.30
2019-02-27T02:10:30.748Z,5.30
2019-02-27T02:13:04.893Z,5.20
2019-02-27T02:15:45.475Z,5.20
2019-02-27T02:18:26.113Z,5.20
2019-02-27T02:21:09.906Z,5.10
2019-02-27T02:23:44.917Z,5.10
2019-02-27T02:26:35.031Z,5.10
2019-02-27T02:29:40.688Z,5.00
2019-02-27T02:32:30.421Z,5.00
2019-02-27T02:35:14.848Z,4.90
2019-02-27T02:38:04.429Z,4.90
2019-02-27T02:40:53.934Z,4.90
2019-02-27T02:43:42.000Z,4.90
2019-02-27T02:46:22.884Z,4.80
2019-02-27T02:49:09.461Z,4.80
2019-02-27T02:51:47.121Z,4.90
2019-02-27T02:54:36.296Z,4.80
2019-02-27T02:57:36.280Z,4.80
2019-02-27T03:00:15.433Z,4.80
2019-02-27T03:03:02.161Z,4.80
2019-02-27T03:05:33.784Z,4.80
2019-02-27T03:08:07.890Z,4.70
2019-02-27T03:10:47.780Z,4.70
2019-02-27T03:13:19.320Z,4.70
2019-02-27T03:16:04.268Z,4.70
2019-02-27T03:19:06.424Z,4.70
2019-02-27T03:21:46.925Z,4.70
2019-02-27T03:24:18.611Z,4.60
2019-02-27T03:27:11.474Z,4.60
2019-02-27T03:29:53.886Z,4.50
2019-02-27T03:32:41.147Z,4.50
2019-02-27T03:35:10.920Z,4.40
2019-02-27T03:37:49.392Z,4.40
2019-02-27T03:40:33.172Z,4.40
2019-02-27T03:43:28.577Z,4.50
2019-02-27T03:46:12.276Z,4.40
2019-02-27T03:49:03.739Z,4.40
2019-02-27T03:52:09.656Z,4.50
2019-02-27T03:54:48.481Z,4.50
2019-02-27T03:57:30.961Z,4.50
2019-02-27T04:00:19.141Z,4.50
2019-02-27T04:02:48.751Z,4.60
2019-02-27T04:05:25.980Z,4.50
2019-02-27T04:08:16.863Z,4.60
2019-02-27T04:10:46.240Z,4.50
2019-02-27T04:13:14.738Z,4.50
2019-02-27T04:15:44.242Z,4.40
2019-02-27T04:18:11.880Z,4.40
2019-02-27T04:20:40.648Z,4.40
2019-02-27T04:23:12.723Z,4.30
2019-02-27T04:25:41.453Z,4.30
2019-02-27T04:28:09.935Z,4.30
2019-02-27T04:30:39.620Z,4.20
2019-02-27T04:33:08.070Z,4.20
2019-02-27T04:35:39.251Z,4.10
2019-02-27T04:38:09.435Z,4.10
2019-02-27T04:40:39.212Z,4.00
2019-02-27T04:43:09.761Z,4.00
2019-02-27T04:45:38.290Z,3.90
2019-02-27T04:48:07.629Z,3.80
2019-02-27T04:50:36.927Z,3.90
2019-02-27T04:53:07.032Z,3.80
2019-02-27T04:55:35.569Z,3.80
2019-02-27T04:58:08.601Z,3.70
2019-02-27T05:00:35.009Z,3.80
2019-02-27T05:03:07.521Z,3.80
2019-02-27T05:05:36.124Z,3.80
2019-02-27T05:08:04.828Z,3.80
2019-02-27T05:10:33.914Z,3.80
2019-02-27T05:13:02.443Z,3.70
2019-02-27T05:15:32.526Z,3.70
2019-02-27T05:18:01.011Z,3.70
2019-02-27T05:20:29.767Z,3.80
2019-02-27T05:23:00.393Z,3.70
2019-02-27T05:25:28.530Z,3.70
2019-02-27T05:28:01.009Z,3.70
2019-02-27T05:30:27.598Z,3.70
2019-02-27T05:33:01.665Z,3.80
2019-02-27T05:35:28.600Z,3.80
2019-02-27T05:37:59.557Z,3.70
2019-02-27T05:40:29.554Z,3.70
2019-02-27T05:42:58.033Z,3.80
2019-02-27T05:45:30.405Z,3.80
2019-02-27T05:47:59.826Z,3.70
2019-02-27T05:50:28.391Z,3.70
2019-02-27T05:52:58.090Z,3.70
2019-02-27T05:55:27.659Z,3.70
2019-02-27T05:57:56.475Z,3.80
2019-02-27T06:00:25.065Z,3.80
2019-02-27T06:02:53.598Z,3.80
2019-02-27T06:05:22.106Z,3.80
2019-02-27T06:07:50.559Z,3.80
2019-02-27T06:10:20.898Z,3.90
2019-02-27T06:12:50.781Z,3.80
2019-02-27T06:15:19.610Z,3.80
2019-02-27T06:17:49.123Z,3.80
2019-02-27T06:20:18.338Z,3.80
2019-02-27T06:22:46.884Z,3.80
2019-02-27T06:25:23.185Z,3.80
2019-02-27T06:27:49.352Z,3.80
2019-02-27T06:30:21.318Z,3.80
2019-02-27T06:32:52.664Z,3.80
2019-02-27T06:35:22.448Z,3.80
2019-02-27T06:37:51.471Z,3.80
2019-02-27T06:40:25.393Z,3.80
2019-02-27T06:42:56.894Z,3.80
2019-02-27T06:45:25.464Z,3.80
2019-02-27T06:47:55.318Z,3.80
2019-02-27T06:50:25.498Z,3.80
2019-02-27T06:52:54.565Z,3.90
2019-02-27T06:55:25.470Z,3.90
2019-02-27T06:57:53.191Z,3.90
2019-02-27T07:00:24.958Z,3.90
2019-02-27T07:02:55.432Z,4.00
2019-02-27T07:05:23.753Z,4.00
2019-02-27T07:07:52.256Z,4.00
2019-02-27T07:10:20.804Z,4.10
2019-02-27T07:12:49.275Z,4.10
2019-02-27T07:15:22.511Z,4.10
2019-02-27T07:17:52.710Z,4.20
2019-02-27T07:20:23.960Z,4.20
2019-02-27T07:22:52.982Z,4.30
2019-02-27T07:25:25.005Z,4.40
2019-02-27T07:27:54.876Z,4.40
2019-02-27T07:30:23.980Z,4.50
2019-02-27T07:32:52.844Z,4.50
2019-02-27T07:35:25.564Z,4.60
2019-02-27T07:37:51.488Z,4.70
2019-02-27T07:40:20.750Z,4.70
2019-02-27T07:42:49.215Z,4.90
2019-02-27T07:45:24.688Z,4.90
2019-02-27T07:47:53.272Z,5.00
2019-02-27T07:50:22.305Z,5.20
2019-02-27T07:52:52.048Z,5.30
2019-02-27T07:55:22.886Z,5.40
2019-02-27T07:57:51.612Z,5.50
2019-02-27T08:00:26.213Z,5.70
2019-02-27T08:02:54.743Z,5.80
2019-02-27T08:05:28.286Z,5.90
2019-02-27T08:07:54.450Z,6.00
2019-02-27T08:10:24.231Z,6.10
2019-02-27T08:12:55.496Z,6.30
2019-02-27T08:15:25.594Z,6.40
2019-02-27T08:17:57.542Z,6.50
2019-02-27T08:20:26.317Z,6.60
2019-02-27T08:22:54.960Z,6.80
2019-02-27T08:25:23.422Z,6.90
2019-02-27T08:27:54.318Z,7.00
2019-02-27T08:30:25.130Z,7.10
2019-02-27T08:32:59.448Z,7.20
2019-02-27T08:35:28.550Z,7.30
2019-02-27T08:38:02.458Z,7.50
2019-02-27T08:40:29.256Z,7.60
2019-02-27T08:42:58.475Z,7.70
2019-02-27T08:45:27.782Z,7.80
2019-02-27T08:47:57.949Z,7.90
2019-02-27T08:50:29.266Z,8.00
2019-02-27T08:52:57.926Z,8.10
2019-02-27T08:55:27.121Z,8.20
2019-02-27T08:57:56.850Z,8.30
2019-02-27T09:00:28.518Z,8.40
2019-02-27T09:03:02.442Z,8.60
2019-02-27T09:05:28.932Z,8.70
2019-02-27T09:07:57.527Z,8.80
2019-02-27T09:13:04.881Z,9.00
2019-02-27T09:15:27.050Z,9.10
2019-02-27T09:17:59.133Z,9.20
2019-02-27T09:20:27.972Z,9.30
2019-02-27T09:22:56.487Z,9.40
2019-02-27T09:25:25.074Z,9.50
2019-02-27T09:27:53.657Z,9.60
2019-02-27T09:30:28.821Z,9.70
2019-02-27T09:32:54.277Z,9.90
2019-02-27T09:35:24.633Z,10.00
2019-02-27T09:37:53.106Z,10.20
2019-02-27T09:40:29.869Z,10.20
2019-02-27T09:42:58.517Z,10.40
2019-02-27T09:45:35.006Z,10.50
2019-02-27T09:48:05.372Z,10.60
2019-02-27T09:50:41.544Z,10.70
2019-02-27T09:53:10.253Z,10.90
2019-02-27T09:55:38.918Z,11.00
2019-02-27T09:58:12.795Z,11.20
2019-02-27T10:00:46.912Z,11.40
2019-02-27T10:03:21.102Z,11.50
2019-02-27T10:05:50.556Z,11.60
2019-02-27T10:08:25.379Z,11.80
2019-02-27T10:10:53.003Z,11.90
2019-02-27T10:13:23.545Z,12.10
2019-02-27T10:15:52.149Z,12.30
2019-02-27T10:18:22.066Z,12.30
2019-02-27T10:20:51.780Z,12.50
2019-02-27T10:23:21.617Z,12.60
2019-02-27T10:25:50.184Z,12.80
2019-02-27T10:28:18.659Z,12.90
2019-02-27T10:30:49.940Z,13.10
2019-02-27T10:33:17.500Z,13.20
2019-02-27T10:35:46.044Z,13.30
2019-02-27T10:38:16.214Z,13.40
2019-02-27T10:40:46.055Z,13.60
2019-02-27T10:43:14.883Z,13.70
2019-02-27T10:45:48.231Z,13.90
2019-02-27T10:48:13.579Z,14.00
2019-02-27T10:50:42.110Z,14.10
2019-02-27T10:53:10.639Z,14.20
2019-02-27T10:55:39.180Z,14.30
2019-02-27T10:58:07.829Z,14.40
2019-02-27T11:00:38.475Z,14.60
2019-02-27T11:03:07.036Z,14.70
2019-02-27T11:05:37.999Z,14.80
2019-02-27T11:08:06.538Z,14.90
2019-02-27T11:10:35.080Z,15.00
2019-02-27T11:13:06.784Z,15.00
2019-02-27T11:15:33.799Z,15.10
2019-02-27T11:18:05.403Z,15.20
2019-02-27T11:20:32.849Z,15.30
2019-02-27T11:23:01.316Z,15.40
2019-02-27T11:25:30.937Z,15.40
2019-02-27T11:27:59.539Z,15.50
2019-02-27T11:30:39.383Z,15.50
2019-02-27T11:33:09.611Z,15.60
2019-02-27T11:35:38.174Z,15.70
2019-02-27T11:38:07.094Z,15.70
2019-02-27T11:40:35.896Z,15.80
2019-02-27T11:43:06.998Z,15.90
2019-02-27T11:45:35.504Z,16.00
2019-02-27T11:48:05.321Z,16.00
2019-02-27T11:50:34.020Z,16.10
2019-02-27T11:53:03.044Z,16.20
2019-02-27T11:55:32.000Z,16.20
2019-02-27T11:58:04.580Z,16.30
2019-02-27T12:00:31.520Z,16.30
2019-02-27T12:03:00.018Z,16.40
2019-02-27T12:05:33.912Z,16.50
2019-02-27T12:07:59.095Z,16.60
2019-02-27T12:10:31.743Z,16.60
2019-02-27T12:13:01.367Z,16.70
2019-02-27T12:15:30.580Z,16.70
2019-02-27T12:18:00.761Z,16.80
2019-02-27T12:20:31.168Z,16.90
2019-02-27T12:22:59.694Z,17.00
2019-02-27T12:25:30.105Z,17.10
2019-02-27T12:27:58.634Z,17.10
2019-02-27T12:30:29.486Z,17.20
2019-02-27T12:32:58.058Z,17.20
2019-02-27T12:35:31.639Z,17.30
2019-02-27T12:38:00.246Z,17.30
2019-02-27T12:40:28.889Z,17.40
2019-02-27T12:42:57.561Z,17.40
2019-02-27T12:45:32.216Z,17.50
2019-02-27T12:48:00.820Z,17.50
2019-02-27T12:50:34.813Z,17.60
2019-02-27T12:53:03.482Z,17.60
2019-02-27T12:55:35.418Z,17.60
2019-02-27T12:58:02.207Z,17.60
2019-02-27T13:00:32.836Z,17.60
2019-02-27T13:03:01.311Z,17.60
2019-02-27T13:05:30.126Z,17.60
2019-02-27T13:08:00.191Z,17.60
2019-02-27T13:10:33.000Z,17.70
2019-02-27T13:12:59.463Z,17.70
2019-02-27T13:15:29.830Z,17.70
2019-02-27T13:17:58.336Z,17.80
2019-02-27T13:20:34.809Z,17.80
2019-02-27T13:23:05.071Z,17.90
2019-02-27T13:25:33.603Z,17.90
2019-02-27T13:28:02.259Z,18.00
2019-02-27T13:30:32.423Z,18.00
2019-02-27T13:33:02.005Z,18.10
2019-02-27T13:35:30.925Z,18.10
2019-02-27T13:37:59.553Z,18.10
2019-02-27T13:40:34.918Z,18.20
2019-02-27T13:43:01.189Z,18.20
2019-02-27T13:45:31.726Z,18.20
2019-02-27T13:48:05.003Z,18.20
2019-02-27T13:50:30.683Z,18.30
2019-02-27T13:52:59.269Z,18.40
2019-02-27T13:55:27.823Z,18.50
2019-02-27T13:57:58.825Z,18.40
2019-02-27T14:00:37.602Z,18.50
2019-02-27T14:03:06.271Z,18.50
2019-02-27T14:05:36.107Z,18.50
2019-02-27T14:08:05.186Z,18.50
2019-02-27T14:10:35.579Z,18.50
2019-02-27T14:13:08.895Z,18.60
2019-02-27T14:15:38.362Z,18.60
2019-02-27T14:18:06.895Z,18.70
2019-02-27T14:20:35.359Z,18.70
2019-02-27T14:23:04.695Z,18.80
2019-02-27T14:25:34.208Z,18.80
2019-02-27T14:28:02.719Z,18.80
2019-02-27T14:30:48.960Z,18.80
2019-02-27T14:33:19.347Z,18.80
2019-02-27T14:35:47.744Z,19.10
2019-02-27T14:38:21.774Z,19.40
2019-02-27T14:40:52.922Z,19.70
2019-02-27T14:43:26.872Z,19.90
2019-02-27T14:45:53.369Z,20.10
2019-02-27T14:48:22.297Z,20.30
2019-02-27T14:50:50.776Z,20.40
2019-02-27T14:53:19.870Z,20.60
2019-02-27T14:55:48.498Z,20.80
2019-02-27T14:58:17.013Z,21.00
2019-02-27T15:00:45.569Z,21.10
2019-02-27T15:03:14.032Z,21.20
2019-02-27T15:05:44.750Z,21.30
2019-02-27T15:08:12.834Z,21.60
2019-02-27T15:10:41.409Z,21.90
2019-02-27T15:13:09.964Z,22.20
2019-02-27T15:15:43.156Z,22.60
2019-02-27T15:18:13.962Z,23.00
2019-02-27T15:20:41.214Z,23.60
2019-02-27T15:23:10.796Z,23.50
2019-02-27T15:25:43.142Z,23.40
2019-02-27T15:28:09.642Z,23.40
2019-02-27T15:30:39.843Z,23.60
2019-02-27T15:33:08.299Z,23.80
2019-02-27T15:35:36.804Z,23.90
2019-02-27T15:38:05.428Z,23.80
2019-02-27T15:40:35.655Z,23.80
2019-02-27T15:43:11.003Z,23.70
2019-02-27T15:45:35.043Z,23.90
2019-02-27T15:48:06.627Z,23.90
2019-02-27T15:50:35.575Z,23.90
2019-02-27T15:53:05.056Z,23.90
2019-02-27T15:55:35.264Z,24.10
2019-02-27T15:58:05.086Z,24.10
2019-02-27T16:00:34.194Z,24.30
2019-02-27T16:03:02.716Z,24.40
2019-02-27T16:05:31.727Z,24.50
2019-02-27T16:08:00.475Z,24.50
2019-02-27T16:10:29.563Z,24.70
2019-02-27T16:13:00.941Z,24.80
2019-02-27T16:15:32.205Z,24.60
2019-02-27T16:18:04.420Z,24.50
2019-02-27T16:20:31.859Z,24.60
2019-02-27T16:23:05.143Z,24.30
2019-02-27T16:25:32.807Z,24.10
2019-02-27T16:28:01.353Z,24.00
2019-02-27T16:30:37.127Z,23.90
2019-02-27T16:33:07.049Z,23.70
2019-02-27T16:35:41.596Z,23.60
2019-02-27T16:38:07.496Z,23.40
2019-02-27T16:40:36.821Z,23.20
2019-02-27T16:43:06.918Z,23.00
2019-02-27T16:45:38.325Z,22.60
2019-02-27T16:48:11.109Z,22.30
2019-02-27T16:50:39.323Z,21.90
2019-02-27T16:53:16.214Z,21.40
2019-02-27T16:55:41.379Z,20.90
2019-02-27T16:58:09.959Z,20.30
2019-02-27T17:00:39.204Z,19.80
2019-02-27T17:03:13.087Z,19.20
2019-02-27T17:05:43.034Z,18.80
2019-02-27T17:08:10.987Z,18.40
2019-02-27T17:10:40.227Z,18.00
2019-02-27T17:13:14.626Z,17.70
2019-02-27T17:15:41.488Z,17.40
2019-02-27T17:18:12.771Z,17.10
2019-02-27T17:20:45.761Z,16.90
2019-02-27T17:23:11.826Z,16.60
2019-02-27T17:25:40.313Z,16.40
2019-02-27T17:28:08.780Z,16.20
2019-02-27T17:30:38.275Z,16.00
2019-02-27T17:33:07.225Z,15.80
2019-02-27T17:35:35.688Z,15.70
2019-02-27T17:38:05.006Z,15.50
2019-02-27T17:40:36.504Z,15.30
2019-02-27T17:43:03.716Z,15.20
2019-02-27T17:45:32.282Z,15.10
2019-02-27T17:48:00.817Z,15.00
2019-02-27T17:50:31.815Z,14.90
2019-02-27T17:52:59.855Z,14.80
2019-02-27T17:55:28.356Z,14.70
2019-02-27T17:57:58.354Z,14.60
2019-02-27T18:00:32.735Z,14.50
2019-02-27T18:03:01.207Z,14.40
2019-02-27T18:05:29.736Z,14.30
2019-02-27T18:07:58.235Z,14.20
2019-02-27T18:10:26.748Z,14.10
2019-02-27T18:12:55.237Z,14.00
2019-02-27T18:15:25.131Z,13.90
2019-02-27T18:17:53.644Z,13.90
2019-02-27T18:20:25.501Z,13.70
2019-02-27T18:22:54.826Z,13.70
2019-02-27T18:25:23.441Z,13.60
2019-02-27T18:27:51.901Z,13.50
2019-02-27T18:30:24.610Z,13.40
2019-02-27T18:32:53.213Z,13.40
2019-02-27T18:35:21.733Z,13.30
2019-02-27T18:37:53.613Z,13.30
2019-02-27T18:40:20.982Z,13.20
2019-02-27T18:42:55.167Z,13.20
2019-02-27T18:45:22.907Z,13.10
2019-02-27T18:47:51.429Z,13.00
2019-02-27T18:50:19.950Z,13.00
2019-02-27T18:52:49.747Z,12.90
2019-02-27T18:55:18.285Z,12.80
2019-02-27T18:57:47.606Z,12.80
2019-02-27T19:00:20.186Z,12.70
2019-02-27T19:02:51.935Z,12.70
2019-02-27T19:05:19.806Z,12.60
2019-02-27T19:07:48.339Z,12.50
2019-02-27T19:10:17.251Z,12.50
2019-02-27T19:12:45.853Z,12.40
2019-02-27T19:15:19.522Z,12.40
2019-02-27T19:17:48.089Z,12.30
2019-02-27T19:20:25.250Z,12.30
2019-02-27T19:22:53.922Z,12.20
2019-02-27T19:25:22.537Z,12.10
2019-02-27T19:27:51.079Z,12.10
2019-02-27T19:30:19.770Z,12.00
2019-02-27T19:32:49.163Z,11.90
2019-02-27T19:35:21.175Z,11.80
2019-02-27T19:37:48.298Z,11.70
2019-02-27T19:40:23.497Z,11.60
2019-02-27T19:42:57.975Z,11.50
2019-02-27T19:45:26.788Z,11.50
2019-02-27T19:47:55.925Z,11.40
2019-02-27T19:50:25.638Z,11.40
2019-02-27T19:52:54.230Z,11.30
2019-02-27T19:55:26.455Z,11.30
2019-02-27T19:57:53.212Z,11.20
2019-02-27T20:00:35.047Z,11.10
2019-02-27T20:03:03.348Z,11.10
2019-02-27T20:05:31.948Z,10.90
2019-02-27T20:08:02.362Z,10.90
2019-02-27T20:10:36.215Z,10.80
2019-02-27T20:13:06.863Z,10.70
2019-02-27T20:15:35.124Z,10.70
2019-02-27T20:18:07.884Z,10.70
2019-02-27T20:20:40.100Z,10.70
2019-02-27T20:23:06.143Z,10.70
2019-02-27T20:25:34.688Z,10.70
2019-02-27T20:28:04.636Z,10.70
2019-02-27T20:30:33.184Z,10.60
2019-02-27T20:33:02.522Z,10.60
2019-02-27T20:35:32.300Z,10.60
2019-02-27T20:38:01.625Z,10.50
2019-02-27T20:40:33.770Z,10.60
2019-02-27T20:43:01.739Z,10.50
2019-02-27T20:45:31.875Z,10.50
2019-02-27T20:48:01.968Z,10.40
2019-02-27T20:50:36.679Z,10.40
2019-02-27T20:53:06.583Z,10.40
2019-02-27T20:55:35.059Z,10.40
2019-02-27T20:58:04.739Z,10.30
2019-02-27T21:00:35.755Z,10.30
2019-02-27T21:03:03.484Z,10.30
2019-02-27T21:05:33.587Z,10.30
2019-02-27T21:08:02.646Z,10.30
2019-02-27T21:10:33.444Z,10.30
2019-02-27T21:13:02.052Z,10.20
2019-02-27T21:15:34.072Z,10.20
2019-02-27T21:18:02.599Z,10.10
2019-02-27T21:20:33.089Z,10.10
2019-02-27T21:23:01.612Z,10.10
2019-02-27T21:25:30.085Z,10.00
2019-02-27T21:27:58.558Z,10.00
2019-02-27T21:30:27.253Z,10.00
2019-02-27T21:32:56.575Z,10.00
2019-02-27T21:35:29.776Z,10.00
2019-02-27T21:37:56.999Z,9.90
2019-02-27T21:40:25.451Z,9.90
2019-02-27T21:42:53.896Z,9.90
2019-02-27T21:45:27.259Z,9.80
2019-02-27T21:47:55.698Z,9.80
2019-02-27T21:50:25.544Z,9.80
2019-02-27T21:52:54.822Z,9.80
2019-02-27T21:55:24.750Z,9.70
2019-02-27T21:57:53.518Z,9.70
2019-02-27T22:00:28.255Z,9.70
2019-02-27T22:02:58.055Z,9.60
2019-02-27T22:05:26.740Z,9.60
2019-02-27T22:07:55.357Z,9.50
2019-02-27T22:10:23.946Z,9.50
2019-02-27T22:12:52.460Z,9.50
2019-02-27T22:15:29.947Z,9.40
2019-02-27T22:17:58.627Z,9.40
2019-02-27T22:20:27.145Z,9.30
2019-02-27T22:22:55.749Z,9.30
2019-02-27T22:25:30.007Z,9.20
2019-02-27T22:27:55.325Z,9.20
2019-02-27T22:30:24.462Z,9.20
2019-02-27T22:32:53.065Z,9.10
2019-02-27T22:35:21.591Z,9.10
2019-02-27T22:37:52.401Z,9.10
2019-02-27T22:40:22.142Z,9.00
2019-02-27T22:42:50.734Z,9.00
2019-02-27T22:45:20.462Z,8.90
2019-02-27T22:47:50.068Z,8.90
2019-02-27T22:50:23.612Z,8.90
2019-02-27T22:52:54.756Z,8.80
2019-02-27T22:55:22.573Z,8.80
2019-02-27T22:57:51.098Z,8.70
2019-02-27T23:00:28.024Z,8.70
2019-02-27T23:02:57.153Z,8.60
2019-02-27T23:05:28.060Z,8.60
2019-02-27T23:07:57.855Z,8.60
2019-02-27T23:10:28.142Z,8.50
2019-02-27T23:12:58.572Z,8.60
2019-02-27T23:15:29.476Z,8.50
2019-02-27T23:17:58.698Z,8.50
2019-02-27T23:20:27.218Z,8.40
2019-02-27T23:22:55.715Z,8.40
2019-02-27T23:25:24.252Z,8.40
2019-02-27T23:27:57.606Z,8.40
2019-02-27T23:30:25.680Z,8.40
2019-02-27T23:32:59.352Z,8.40
2019-02-27T23:35:29.311Z,8.30
2019-02-27T23:38:03.097Z,8.20
2019-02-27T23:40:29.343Z,8.20
2019-02-27T23:43:02.343Z,8.20
2019-02-27T23:45:28.117Z,8.20
2019-02-27T23:47:59.279Z,8.10
2019-02-27T23:50:30.620Z,8.10
2019-02-27T23:52:59.077Z,8.00
2019-02-27T23:55:27.543Z,8.00
2019-02-27T23:57:57.947Z,8.00
